sensor_id;sensor_type;location;lat;lon;timestamp;P1;durP1;ratioP1;P2;durP2;ratioP2
82806;SDS011;72563;44.816;20.484;2023-10-09T00:00:16;4.65;;;1.90;;
82806;SDS011;72563;44.816;20.484;2023-10-09T00:03:00;5.13;;;1.88;;
82806;SDS011;72563;44.816;20.484;2023-10-09T00:05:29;5.50;;;1.83;;
82806;SDS011;72563;44.816;20.484;2023-10-09T00:08:16;4.43;;;1.80;;
82806;SDS011;72563;44.816;20.484;2023-10-09T00:10:52;4.32;;;1.90;;
82806;SDS011;72563;44.816;20.484;2023-10-09T00:13:21;5.07;;;2.35;;
82806;SDS011;72563;44.816;20.484;2023-10-09T00:15:56;5.90;;;1.90;;
82806;SDS011;72563;44.816;20.484;2023-10-09T00:18:26;4.72;;;1.85;;
82806;SDS011;72563;44.816;20.484;2023-10-09T00:20:58;6.30;;;2.03;;
82806;SDS011;72563;44.816;20.484;2023-10-09T00:23:36;5.28;;;1.98;;
82806;SDS011;72563;44.816;20.484;2023-10-09T00:26:02;5.90;;;2.20;;
82806;SDS011;72563;44.816;20.484;2023-10-09T00:28:44;6.20;;;2.20;;
82806;SDS011;72563;44.816;20.484;2023-10-09T00:31:15;5.00;;;2.03;;
82806;SDS011;72563;44.816;20.484;2023-10-09T00:33:43;5.70;;;2.20;;
82806;SDS011;72563;44.816;20.484;2023-10-09T00:36:09;5.88;;;2.30;;
82806;SDS011;72563;44.816;20.484;2023-10-09T00:38:38;7.45;;;2.30;;
82806;SDS011;72563;44.816;20.484;2023-10-09T00:41:14;4.40;;;2.25;;
82806;SDS011;72563;44.816;20.484;2023-10-09T00:43:45;5.70;;;2.38;;
82806;SDS011;72563;44.816;20.484;2023-10-09T00:46:11;5.60;;;2.22;;
82806;SDS011;72563;44.816;20.484;2023-10-09T00:48:46;5.07;;;2.17;;
82806;SDS011;72563;44.816;20.484;2023-10-09T00:51:13;5.03;;;1.83;;
82806;SDS011;72563;44.816;20.484;2023-10-09T00:53:44;6.20;;;1.90;;
82806;SDS011;72563;44.816;20.484;2023-10-09T00:56:10;5.05;;;2.20;;
82806;SDS011;72563;44.816;20.484;2023-10-09T00:58:45;5.03;;;2.10;;
82806;SDS011;72563;44.816;20.484;2023-10-09T01:01:12;4.75;;;2.00;;
82806;SDS011;72563;44.816;20.484;2023-10-09T01:03:41;5.25;;;1.90;;
82806;SDS011;72563;44.816;20.484;2023-10-09T01:06:07;5.63;;;2.25;;
82806;SDS011;72563;44.816;20.484;2023-10-09T01:08:37;6.35;;;3.03;;
82806;SDS011;72563;44.816;20.484;2023-10-09T01:11:07;4.55;;;1.83;;
82806;SDS011;72563;44.816;20.484;2023-10-09T01:13:40;5.45;;;2.92;;
82806;SDS011;72563;44.816;20.484;2023-10-09T01:16:19;4.95;;;2.20;;
82806;SDS011;72563;44.816;20.484;2023-10-09T01:18:48;6.57;;;2.17;;
82806;SDS011;72563;44.816;20.484;2023-10-09T01:21:15;5.25;;;2.20;;
82806;SDS011;72563;44.816;20.484;2023-10-09T01:23:51;5.50;;;2.08;;
82806;SDS011;72563;44.816;20.484;2023-10-09T01:26:36;5.82;;;2.40;;
82806;SDS011;72563;44.816;20.484;2023-10-09T01:29:18;5.65;;;2.40;;
82806;SDS011;72563;44.816;20.484;2023-10-09T01:31:53;6.15;;;2.88;;
82806;SDS011;72563;44.816;20.484;2023-10-09T01:34:31;5.72;;;2.75;;
82806;SDS011;72563;44.816;20.484;2023-10-09T01:37:01;5.60;;;2.25;;
82806;SDS011;72563;44.816;20.484;2023-10-09T01:39:30;5.40;;;2.17;;
82806;SDS011;72563;44.816;20.484;2023-10-09T01:41:56;5.78;;;2.20;;
82806;SDS011;72563;44.816;20.484;2023-10-09T01:44:28;6.90;;;2.80;;
82806;SDS011;72563;44.816;20.484;2023-10-09T01:46:56;6.05;;;2.50;;
82806;SDS011;72563;44.816;20.484;2023-10-09T01:49:23;7.07;;;2.22;;
82806;SDS011;72563;44.816;20.484;2023-10-09T01:51:56;7.00;;;2.50;;
82806;SDS011;72563;44.816;20.484;2023-10-09T01:54:32;5.78;;;2.63;;
82806;SDS011;72563;44.816;20.484;2023-10-09T01:57:06;5.28;;;2.63;;
82806;SDS011;72563;44.816;20.484;2023-10-09T01:59:40;8.55;;;3.28;;
82806;SDS011;72563;44.816;20.484;2023-10-09T02:02:12;5.57;;;2.70;;
82806;SDS011;72563;44.816;20.484;2023-10-09T02:04:51;6.35;;;3.03;;
82806;SDS011;72563;44.816;20.484;2023-10-09T02:07:36;6.38;;;3.00;;
82806;SDS011;72563;44.816;20.484;2023-10-09T02:10:20;6.78;;;4.03;;
82806;SDS011;72563;44.816;20.484;2023-10-09T02:15:26;6.00;;;3.10;;
82806;SDS011;72563;44.816;20.484;2023-10-09T02:18:08;7.32;;;3.47;;
82806;SDS011;72563;44.816;20.484;2023-10-09T02:23:37;7.35;;;4.13;;
82806;SDS011;72563;44.816;20.484;2023-10-09T02:26:04;8.30;;;3.33;;
82806;SDS011;72563;44.816;20.484;2023-10-09T02:28:33;7.22;;;3.40;;
82806;SDS011;72563;44.816;20.484;2023-10-09T02:30:59;7.35;;;3.88;;
82806;SDS011;72563;44.816;20.484;2023-10-09T02:33:27;7.05;;;3.30;;
82806;SDS011;72563;44.816;20.484;2023-10-09T02:35:55;7.55;;;3.40;;
82806;SDS011;72563;44.816;20.484;2023-10-09T02:38:24;7.07;;;3.20;;
82806;SDS011;72563;44.816;20.484;2023-10-09T02:40:51;6.22;;;3.20;;
82806;SDS011;72563;44.816;20.484;2023-10-09T02:43:32;6.57;;;3.55;;
82806;SDS011;72563;44.816;20.484;2023-10-09T02:46:09;6.57;;;3.08;;
82806;SDS011;72563;44.816;20.484;2023-10-09T02:48:53;6.68;;;3.17;;
82806;SDS011;72563;44.816;20.484;2023-10-09T02:51:24;6.93;;;3.08;;
82806;SDS011;72563;44.816;20.484;2023-10-09T02:53:50;7.10;;;3.03;;
82806;SDS011;72563;44.816;20.484;2023-10-09T02:56:16;6.07;;;3.20;;
82806;SDS011;72563;44.816;20.484;2023-10-09T02:58:50;7.68;;;3.50;;
82806;SDS011;72563;44.816;20.484;2023-10-09T03:01:16;7.07;;;3.28;;
82806;SDS011;72563;44.816;20.484;2023-10-09T03:03:42;9.45;;;2.97;;
82806;SDS011;72563;44.816;20.484;2023-10-09T03:06:15;8.80;;;3.03;;
82806;SDS011;72563;44.816;20.484;2023-10-09T03:08:56;10.63;;;3.80;;
82806;SDS011;72563;44.816;20.484;2023-10-09T03:11:22;6.38;;;3.00;;
82806;SDS011;72563;44.816;20.484;2023-10-09T03:13:48;6.43;;;3.05;;
82806;SDS011;72563;44.816;20.484;2023-10-09T03:16:14;7.18;;;2.80;;
82806;SDS011;72563;44.816;20.484;2023-10-09T03:18:41;7.82;;;2.92;;
82806;SDS011;72563;44.816;20.484;2023-10-09T03:21:07;7.55;;;3.55;;
82806;SDS011;72563;44.816;20.484;2023-10-09T03:23:34;7.47;;;2.80;;
82806;SDS011;72563;44.816;20.484;2023-10-09T03:25:59;6.40;;;3.05;;
82806;SDS011;72563;44.816;20.484;2023-10-09T03:28:25;6.80;;;2.90;;
82806;SDS011;72563;44.816;20.484;2023-10-09T03:30:51;6.75;;;3.15;;
82806;SDS011;72563;44.816;20.484;2023-10-09T03:33:18;6.97;;;3.15;;
82806;SDS011;72563;44.816;20.484;2023-10-09T03:35:43;7.18;;;2.72;;
82806;SDS011;72563;44.816;20.484;2023-10-09T03:38:09;5.45;;;2.80;;
82806;SDS011;72563;44.816;20.484;2023-10-09T03:40:42;7.25;;;2.80;;
82806;SDS011;72563;44.816;20.484;2023-10-09T03:43:09;6.75;;;3.10;;
82806;SDS011;72563;44.816;20.484;2023-10-09T03:45:38;6.95;;;3.15;;
82806;SDS011;72563;44.816;20.484;2023-10-09T03:48:10;7.43;;;3.13;;
82806;SDS011;72563;44.816;20.484;2023-10-09T03:50:45;6.20;;;2.75;;
82806;SDS011;72563;44.816;20.484;2023-10-09T03:53:11;5.53;;;2.70;;
82806;SDS011;72563;44.816;20.484;2023-10-09T03:55:37;6.25;;;2.60;;
82806;SDS011;72563;44.816;20.484;2023-10-09T03:58:04;6.18;;;2.88;;
82806;SDS011;72563;44.816;20.484;2023-10-09T04:00:36;6.47;;;2.70;;
82806;SDS011;72563;44.816;20.484;2023-10-09T04:03:14;6.13;;;2.75;;
82806;SDS011;72563;44.816;20.484;2023-10-09T04:05:41;6.38;;;2.70;;
82806;SDS011;72563;44.816;20.484;2023-10-09T04:08:11;6.97;;;2.72;;
82806;SDS011;72563;44.816;20.484;2023-10-09T04:10:38;7.45;;;3.00;;
82806;SDS011;72563;44.816;20.484;2023-10-09T04:13:16;6.72;;;2.70;;
82806;SDS011;72563;44.816;20.484;2023-10-09T04:15:48;7.43;;;3.13;;
82806;SDS011;72563;44.816;20.484;2023-10-09T04:18:18;6.65;;;3.03;;
82806;SDS011;72563;44.816;20.484;2023-10-09T04:20:45;5.88;;;2.28;;
82806;SDS011;72563;44.816;20.484;2023-10-09T04:23:33;7.13;;;2.80;;
82806;SDS011;72563;44.816;20.484;2023-10-09T04:26:21;6.18;;;2.80;;
82806;SDS011;72563;44.816;20.484;2023-10-09T04:31:17;6.32;;;3.00;;
82806;SDS011;72563;44.816;20.484;2023-10-09T04:33:45;5.72;;;2.90;;
82806;SDS011;72563;44.816;20.484;2023-10-09T04:36:31;7.50;;;3.17;;
82806;SDS011;72563;44.816;20.484;2023-10-09T04:39:11;5.75;;;2.95;;
82806;SDS011;72563;44.816;20.484;2023-10-09T04:41:36;6.63;;;2.90;;
82806;SDS011;72563;44.816;20.484;2023-10-09T04:44:04;6.00;;;3.05;;
82806;SDS011;72563;44.816;20.484;2023-10-09T04:46:54;8.75;;;3.10;;
82806;SDS011;72563;44.816;20.484;2023-10-09T04:49:35;6.68;;;2.80;;
82806;SDS011;72563;44.816;20.484;2023-10-09T04:52:11;9.05;;;2.90;;
82806;SDS011;72563;44.816;20.484;2023-10-09T04:54:58;7.72;;;2.83;;
82806;SDS011;72563;44.816;20.484;2023-10-09T04:57:30;6.63;;;3.00;;
82806;SDS011;72563;44.816;20.484;2023-10-09T05:00:03;8.07;;;2.83;;
82806;SDS011;72563;44.816;20.484;2023-10-09T05:02:52;8.85;;;4.65;;
82806;SDS011;72563;44.816;20.484;2023-10-09T05:05:48;7.55;;;2.90;;
82806;SDS011;72563;44.816;20.484;2023-10-09T05:08:23;6.80;;;3.03;;
82806;SDS011;72563;44.816;20.484;2023-10-09T05:10:59;7.47;;;3.00;;
82806;SDS011;72563;44.816;20.484;2023-10-09T05:13:27;6.43;;;2.80;;
82806;SDS011;72563;44.816;20.484;2023-10-09T05:16:11;7.28;;;2.97;;
82806;SDS011;72563;44.816;20.484;2023-10-09T05:18:56;7.07;;;3.38;;
82806;SDS011;72563;44.816;20.484;2023-10-09T05:21:37;6.75;;;3.20;;
82806;SDS011;72563;44.816;20.484;2023-10-09T05:24:06;9.10;;;3.30;;
82806;SDS011;72563;44.816;20.484;2023-10-09T05:26:42;7.85;;;3.33;;
82806;SDS011;72563;44.816;20.484;2023-10-09T05:32:04;7.43;;;3.28;;
82806;SDS011;72563;44.816;20.484;2023-10-09T05:34:37;8.32;;;3.10;;
82806;SDS011;72563;44.816;20.484;2023-10-09T05:37:22;8.00;;;3.55;;
82806;SDS011;72563;44.816;20.484;2023-10-09T05:42:26;10.02;;;3.88;;
82806;SDS011;72563;44.816;20.484;2023-10-09T05:47:45;8.20;;;3.38;;
82806;SDS011;72563;44.816;20.484;2023-10-09T05:50:30;7.65;;;3.58;;
82806;SDS011;72563;44.816;20.484;2023-10-09T05:52:59;8.07;;;3.47;;
82806;SDS011;72563;44.816;20.484;2023-10-09T05:55:26;6.70;;;2.63;;
82806;SDS011;72563;44.816;20.484;2023-10-09T05:57:55;7.95;;;3.53;;
82806;SDS011;72563;44.816;20.484;2023-10-09T06:00:25;7.53;;;3.40;;
82806;SDS011;72563;44.816;20.484;2023-10-09T06:03:09;7.25;;;3.40;;
82806;SDS011;72563;44.816;20.484;2023-10-09T06:06:02;10.13;;;3.53;;
82806;SDS011;72563;44.816;20.484;2023-10-09T06:08:29;6.28;;;3.20;;
82806;SDS011;72563;44.816;20.484;2023-10-09T06:11:24;7.35;;;3.22;;
82806;SDS011;72563;44.816;20.484;2023-10-09T06:13:59;7.43;;;3.10;;
82806;SDS011;72563;44.816;20.484;2023-10-09T06:16:35;6.75;;;3.00;;
82806;SDS011;72563;44.816;20.484;2023-10-09T06:19:04;7.70;;;3.55;;
82806;SDS011;72563;44.816;20.484;2023-10-09T06:21:36;7.18;;;3.13;;
82806;SDS011;72563;44.816;20.484;2023-10-09T06:24:24;7.07;;;3.00;;
82806;SDS011;72563;44.816;20.484;2023-10-09T06:27:06;9.63;;;3.78;;
82806;SDS011;72563;44.816;20.484;2023-10-09T06:29:35;6.10;;;3.00;;
82806;SDS011;72563;44.816;20.484;2023-10-09T06:32:06;7.13;;;3.28;;
82806;SDS011;72563;44.816;20.484;2023-10-09T06:34:51;6.75;;;2.92;;
82806;SDS011;72563;44.816;20.484;2023-10-09T06:38:02;7.18;;;3.40;;
82806;SDS011;72563;44.816;20.484;2023-10-09T06:43:19;7.13;;;3.33;;
82806;SDS011;72563;44.816;20.484;2023-10-09T06:48:51;6.88;;;2.50;;
82806;SDS011;72563;44.816;20.484;2023-10-09T06:51:24;7.50;;;3.28;;
82806;SDS011;72563;44.816;20.484;2023-10-09T06:53:54;8.85;;;3.47;;
82806;SDS011;72563;44.816;20.484;2023-10-09T06:56:20;6.50;;;3.25;;
82806;SDS011;72563;44.816;20.484;2023-10-09T06:58:55;8.55;;;3.90;;
82806;SDS011;72563;44.816;20.484;2023-10-09T07:01:23;6.88;;;3.00;;
82806;SDS011;72563;44.816;20.484;2023-10-09T07:04:08;7.13;;;2.95;;
82806;SDS011;72563;44.816;20.484;2023-10-09T07:06:52;6.65;;;2.95;;
82806;SDS011;72563;44.816;20.484;2023-10-09T07:09:18;7.65;;;2.83;;
82806;SDS011;72563;44.816;20.484;2023-10-09T07:11:48;7.72;;;3.42;;
82806;SDS011;72563;44.816;20.484;2023-10-09T07:16:55;8.80;;;3.30;;
82806;SDS011;72563;44.816;20.484;2023-10-09T07:20:09;7.25;;;3.45;;
82806;SDS011;72563;44.816;20.484;2023-10-09T07:22:40;9.93;;;3.05;;
82806;SDS011;72563;44.816;20.484;2023-10-09T07:25:21;6.63;;;2.85;;
82806;SDS011;72563;44.816;20.484;2023-10-09T07:27:57;7.13;;;3.33;;
82806;SDS011;72563;44.816;20.484;2023-10-09T07:30:25;5.75;;;2.92;;
82806;SDS011;72563;44.816;20.484;2023-10-09T07:32:56;6.80;;;3.20;;
82806;SDS011;72563;44.816;20.484;2023-10-09T07:38:25;6.60;;;3.03;;
82806;SDS011;72563;44.816;20.484;2023-10-09T07:40:55;9.23;;;3.38;;
82806;SDS011;72563;44.816;20.484;2023-10-09T07:43:41;5.85;;;2.90;;
82806;SDS011;72563;44.816;20.484;2023-10-09T07:46:10;7.82;;;3.22;;
82806;SDS011;72563;44.816;20.484;2023-10-09T07:48:57;6.60;;;3.40;;
82806;SDS011;72563;44.816;20.484;2023-10-09T07:51:25;12.02;;;3.67;;
82806;SDS011;72563;44.816;20.484;2023-10-09T07:54:01;7.93;;;3.28;;
82806;SDS011;72563;44.816;20.484;2023-10-09T07:56:33;6.78;;;3.22;;
82806;SDS011;72563;44.816;20.484;2023-10-09T07:59:06;9.73;;;3.38;;
82806;SDS011;72563;44.816;20.484;2023-10-09T08:01:42;12.63;;;2.90;;
82806;SDS011;72563;44.816;20.484;2023-10-09T08:04:27;6.55;;;3.00;;
82806;SDS011;72563;44.816;20.484;2023-10-09T08:07:06;8.30;;;3.25;;
82806;SDS011;72563;44.816;20.484;2023-10-09T08:09:33;8.40;;;3.55;;
82806;SDS011;72563;44.816;20.484;2023-10-09T08:12:15;7.90;;;2.95;;
82806;SDS011;72563;44.816;20.484;2023-10-09T08:15:05;6.18;;;2.85;;
82806;SDS011;72563;44.816;20.484;2023-10-09T08:17:55;7.28;;;3.15;;
82806;SDS011;72563;44.816;20.484;2023-10-09T08:20:28;9.45;;;3.28;;
82806;SDS011;72563;44.816;20.484;2023-10-09T08:23:15;5.45;;;3.13;;
82806;SDS011;72563;44.816;20.484;2023-10-09T08:26:03;8.48;;;2.72;;
82806;SDS011;72563;44.816;20.484;2023-10-09T08:28:41;6.93;;;2.97;;
82806;SDS011;72563;44.816;20.484;2023-10-09T08:31:14;5.53;;;2.63;;
82806;SDS011;72563;44.816;20.484;2023-10-09T08:33:59;8.60;;;3.20;;
82806;SDS011;72563;44.816;20.484;2023-10-09T08:36:29;7.75;;;2.97;;
82806;SDS011;72563;44.816;20.484;2023-10-09T08:39:01;7.63;;;2.67;;
82806;SDS011;72563;44.816;20.484;2023-10-09T08:41:42;8.75;;;3.10;;
82806;SDS011;72563;44.816;20.484;2023-10-09T08:44:07;6.65;;;3.10;;
82806;SDS011;72563;44.816;20.484;2023-10-09T08:46:37;5.32;;;3.00;;
82806;SDS011;72563;44.816;20.484;2023-10-09T08:51:32;6.97;;;2.72;;
82806;SDS011;72563;44.816;20.484;2023-10-09T08:54:00;5.45;;;2.67;;
82806;SDS011;72563;44.816;20.484;2023-10-09T08:56:25;5.65;;;2.30;;
82806;SDS011;72563;44.816;20.484;2023-10-09T08:58:52;6.30;;;2.70;;
82806;SDS011;72563;44.816;20.484;2023-10-09T09:01:20;7.32;;;2.25;;
82806;SDS011;72563;44.816;20.484;2023-10-09T09:03:47;7.30;;;2.72;;
82806;SDS011;72563;44.816;20.484;2023-10-09T09:06:13;5.53;;;2.30;;
82806;SDS011;72563;44.816;20.484;2023-10-09T09:08:39;5.82;;;2.50;;
82806;SDS011;72563;44.816;20.484;2023-10-09T09:11:17;6.28;;;2.55;;
82806;SDS011;72563;44.816;20.484;2023-10-09T09:13:48;6.57;;;2.63;;
82806;SDS011;72563;44.816;20.484;2023-10-09T09:18:56;6.28;;;2.45;;
82806;SDS011;72563;44.816;20.484;2023-10-09T09:21:30;6.70;;;2.70;;
82806;SDS011;72563;44.816;20.484;2023-10-09T09:24:06;6.30;;;2.33;;
82806;SDS011;72563;44.816;20.484;2023-10-09T09:27:02;7.70;;;2.40;;
82806;SDS011;72563;44.816;20.484;2023-10-09T09:29:38;7.70;;;2.88;;
82806;SDS011;72563;44.816;20.484;2023-10-09T09:32:09;9.13;;;2.95;;
82806;SDS011;72563;44.816;20.484;2023-10-09T09:34:49;6.32;;;2.95;;
82806;SDS011;72563;44.816;20.484;2023-10-09T09:37:26;6.93;;;3.00;;
82806;SDS011;72563;44.816;20.484;2023-10-09T09:42:43;8.55;;;2.80;;
82806;SDS011;72563;44.816;20.484;2023-10-09T09:47:39;6.03;;;2.28;;
82806;SDS011;72563;44.816;20.484;2023-10-09T09:50:12;7.47;;;3.08;;
82806;SDS011;72563;44.816;20.484;2023-10-09T09:52:49;7.13;;;2.65;;
82806;SDS011;72563;44.816;20.484;2023-10-09T09:55:18;7.85;;;2.15;;
82806;SDS011;72563;44.816;20.484;2023-10-09T09:57:47;16.77;;;3.13;;
82806;SDS011;72563;44.816;20.484;2023-10-09T10:00:21;6.32;;;2.65;;
82806;SDS011;72563;44.816;20.484;2023-10-09T10:03:09;5.65;;;2.50;;
82806;SDS011;72563;44.816;20.484;2023-10-09T10:05:37;8.25;;;2.72;;
82806;SDS011;72563;44.816;20.484;2023-10-09T10:08:07;5.43;;;2.50;;
82806;SDS011;72563;44.816;20.484;2023-10-09T10:10:39;6.57;;;2.45;;
82806;SDS011;72563;44.816;20.484;2023-10-09T10:13:17;7.35;;;3.05;;
82806;SDS011;72563;44.816;20.484;2023-10-09T10:16:12;6.90;;;2.70;;
82806;SDS011;72563;44.816;20.484;2023-10-09T10:18:55;6.80;;;2.40;;
82806;SDS011;72563;44.816;20.484;2023-10-09T10:21:46;5.35;;;2.10;;
82806;SDS011;72563;44.816;20.484;2023-10-09T10:27:16;6.10;;;2.40;;
82806;SDS011;72563;44.816;20.484;2023-10-09T10:35:20;7.00;;;2.45;;
82806;SDS011;72563;44.816;20.484;2023-10-09T10:38:25;8.30;;;2.50;;
82806;SDS011;72563;44.816;20.484;2023-10-09T10:41:07;5.68;;;2.33;;
82806;SDS011;72563;44.816;20.484;2023-10-09T10:43:37;4.72;;;2.15;;
82806;SDS011;72563;44.816;20.484;2023-10-09T10:46:20;5.90;;;1.95;;
82806;SDS011;72563;44.816;20.484;2023-10-09T10:48:55;5.53;;;2.15;;
82806;SDS011;72563;44.816;20.484;2023-10-09T10:51:25;5.28;;;1.98;;
82806;SDS011;72563;44.816;20.484;2023-10-09T10:54:01;5.30;;;2.33;;
82806;SDS011;72563;44.816;20.484;2023-10-09T10:56:46;6.55;;;2.13;;
82806;SDS011;72563;44.816;20.484;2023-10-09T10:59:13;5.60;;;1.92;;
82806;SDS011;72563;44.816;20.484;2023-10-09T11:01:39;7.05;;;2.40;;
82806;SDS011;72563;44.816;20.484;2023-10-09T11:04:23;7.80;;;2.50;;
82806;SDS011;72563;44.816;20.484;2023-10-09T11:07:03;5.93;;;2.30;;
82806;SDS011;72563;44.816;20.484;2023-10-09T11:12:41;5.57;;;2.45;;
82806;SDS011;72563;44.816;20.484;2023-10-09T11:20:36;6.00;;;2.42;;
82806;SDS011;72563;44.816;20.484;2023-10-09T11:23:18;5.55;;;2.80;;
82806;SDS011;72563;44.816;20.484;2023-10-09T11:25:54;5.43;;;2.42;;
82806;SDS011;72563;44.816;20.484;2023-10-09T11:28:40;6.20;;;2.88;;
82806;SDS011;72563;44.816;20.484;2023-10-09T11:31:14;6.55;;;2.72;;
82806;SDS011;72563;44.816;20.484;2023-10-09T11:33:46;6.80;;;2.42;;
82806;SDS011;72563;44.816;20.484;2023-10-09T11:36:19;5.13;;;2.00;;
82806;SDS011;72563;44.816;20.484;2023-10-09T11:39:01;4.72;;;1.60;;
82806;SDS011;72563;44.816;20.484;2023-10-09T11:42:09;6.25;;;2.35;;
82806;SDS011;72563;44.816;20.484;2023-10-09T11:44:40;4.55;;;2.03;;
82806;SDS011;72563;44.816;20.484;2023-10-09T11:47:10;5.82;;;1.92;;
82806;SDS011;72563;44.816;20.484;2023-10-09T11:49:58;5.50;;;1.95;;
82806;SDS011;72563;44.816;20.484;2023-10-09T11:52:27;5.60;;;2.20;;
82806;SDS011;72563;44.816;20.484;2023-10-09T11:55:21;6.00;;;2.00;;
82806;SDS011;72563;44.816;20.484;2023-10-09T11:57:50;6.30;;;2.20;;
82806;SDS011;72563;44.816;20.484;2023-10-09T12:00:16;4.55;;;1.70;;
82806;SDS011;72563;44.816;20.484;2023-10-09T12:02:55;5.50;;;2.10;;
82806;SDS011;72563;44.816;20.484;2023-10-09T12:05:21;5.80;;;2.17;;
82806;SDS011;72563;44.816;20.484;2023-10-09T12:07:48;5.45;;;2.20;;
82806;SDS011;72563;44.816;20.484;2023-10-09T12:10:26;5.90;;;2.03;;
82806;SDS011;72563;44.816;20.484;2023-10-09T12:12:52;5.10;;;1.92;;
82806;SDS011;72563;44.816;20.484;2023-10-09T12:15:18;5.30;;;1.83;;
82806;SDS011;72563;44.816;20.484;2023-10-09T12:17:45;5.30;;;1.98;;
82806;SDS011;72563;44.816;20.484;2023-10-09T12:20:15;4.50;;;1.83;;
82806;SDS011;72563;44.816;20.484;2023-10-09T12:23:00;5.88;;;2.08;;
82806;SDS011;72563;44.816;20.484;2023-10-09T12:25:29;5.32;;;1.95;;
82806;SDS011;72563;44.816;20.484;2023-10-09T12:27:59;6.22;;;2.13;;
82806;SDS011;72563;44.816;20.484;2023-10-09T12:30:31;5.65;;;2.15;;
82806;SDS011;72563;44.816;20.484;2023-10-09T12:33:03;6.15;;;2.10;;
82806;SDS011;72563;44.816;20.484;2023-10-09T12:35:28;9.50;;;3.25;;
82806;SDS011;72563;44.816;20.484;2023-10-09T12:37:59;7.03;;;2.83;;
82806;SDS011;72563;44.816;20.484;2023-10-09T12:40:25;6.50;;;2.15;;
82806;SDS011;72563;44.816;20.484;2023-10-09T12:42:54;5.88;;;1.98;;
82806;SDS011;72563;44.816;20.484;2023-10-09T12:45:21;6.13;;;1.60;;
82806;SDS011;72563;44.816;20.484;2023-10-09T12:47:57;4.80;;;1.67;;
82806;SDS011;72563;44.816;20.484;2023-10-09T12:50:30;6.57;;;2.03;;
82806;SDS011;72563;44.816;20.484;2023-10-09T12:52:59;6.38;;;1.90;;
82806;SDS011;72563;44.816;20.484;2023-10-09T12:55:34;13.13;;;9.75;;
82806;SDS011;72563;44.816;20.484;2023-10-09T12:58:00;45.47;;;18.48;;
82806;SDS011;72563;44.816;20.484;2023-10-09T13:00:33;253.93;;;98.97;;
82806;SDS011;72563;44.816;20.484;2023-10-09T13:03:09;170.25;;;60.50;;
82806;SDS011;72563;44.816;20.484;2023-10-09T13:05:45;109.43;;;43.78;;
82806;SDS011;72563;44.816;20.484;2023-10-09T13:08:19;86.22;;;31.48;;
82806;SDS011;72563;44.816;20.484;2023-10-09T13:10:52;148.80;;;60.35;;
82806;SDS011;72563;44.816;20.484;2023-10-09T13:13:24;210.23;;;87.20;;
82806;SDS011;72563;44.816;20.484;2023-10-09T13:16:01;150.55;;;61.28;;
82806;SDS011;72563;44.816;20.484;2023-10-09T13:18:31;89.55;;;36.47;;
82806;SDS011;72563;44.816;20.484;2023-10-09T13:20:56;66.18;;;26.75;;
82806;SDS011;72563;44.816;20.484;2023-10-09T13:23:22;58.63;;;27.67;;
82806;SDS011;72563;44.816;20.484;2023-10-09T13:25:52;40.70;;;18.30;;
82806;SDS011;72563;44.816;20.484;2023-10-09T13:28:18;51.20;;;22.60;;
82806;SDS011;72563;44.816;20.484;2023-10-09T13:30:45;46.03;;;20.58;;
82806;SDS011;72563;44.816;20.484;2023-10-09T13:33:14;23.88;;;10.20;;
82806;SDS011;72563;44.816;20.484;2023-10-09T13:35:42;29.50;;;12.00;;
82806;SDS011;72563;44.816;20.484;2023-10-09T13:38:15;20.38;;;9.30;;
82806;SDS011;72563;44.816;20.484;2023-10-09T13:40:41;11.05;;;4.70;;
82806;SDS011;72563;44.816;20.484;2023-10-09T13:43:07;22.05;;;9.32;;
82806;SDS011;72563;44.816;20.484;2023-10-09T13:45:40;11.55;;;4.25;;
82806;SDS011;72563;44.816;20.484;2023-10-09T13:48:05;15.80;;;5.68;;
82806;SDS011;72563;44.816;20.484;2023-10-09T13:50:36;8.27;;;3.40;;
82806;SDS011;72563;44.816;20.484;2023-10-09T13:53:07;16.75;;;6.38;;
82806;SDS011;72563;44.816;20.484;2023-10-09T13:55:38;9.43;;;3.97;;
82806;SDS011;72563;44.816;20.484;2023-10-09T13:58:08;9.55;;;3.88;;
82806;SDS011;72563;44.816;20.484;2023-10-09T14:00:39;11.07;;;4.50;;
82806;SDS011;72563;44.816;20.484;2023-10-09T14:03:07;12.00;;;5.43;;
82806;SDS011;72563;44.816;20.484;2023-10-09T14:05:39;10.20;;;4.60;;
82806;SDS011;72563;44.816;20.484;2023-10-09T14:08:25;7.28;;;3.03;;
82806;SDS011;72563;44.816;20.484;2023-10-09T14:10:53;10.07;;;3.67;;
82806;SDS011;72563;44.816;20.484;2023-10-09T14:13:19;8.93;;;4.68;;
82806;SDS011;72563;44.816;20.484;2023-10-09T14:15:53;9.50;;;3.67;;
82806;SDS011;72563;44.816;20.484;2023-10-09T14:18:20;6.63;;;3.00;;
82806;SDS011;72563;44.816;20.484;2023-10-09T14:20:46;8.77;;;3.70;;
82806;SDS011;72563;44.816;20.484;2023-10-09T14:23:11;6.90;;;2.70;;
82806;SDS011;72563;44.816;20.484;2023-10-09T14:25:37;8.80;;;3.40;;
82806;SDS011;72563;44.816;20.484;2023-10-09T14:28:07;7.63;;;3.28;;
82806;SDS011;72563;44.816;20.484;2023-10-09T14:30:36;7.28;;;2.72;;
82806;SDS011;72563;44.816;20.484;2023-10-09T14:33:09;9.73;;;3.55;;
82806;SDS011;72563;44.816;20.484;2023-10-09T14:35:40;7.57;;;2.85;;
82806;SDS011;72563;44.816;20.484;2023-10-09T14:38:07;10.30;;;3.42;;
82806;SDS011;72563;44.816;20.484;2023-10-09T14:40:44;6.45;;;2.92;;
82806;SDS011;72563;44.816;20.484;2023-10-09T14:43:10;7.18;;;2.97;;
82806;SDS011;72563;44.816;20.484;2023-10-09T14:45:46;6.88;;;3.03;;
82806;SDS011;72563;44.816;20.484;2023-10-09T14:48:18;6.55;;;2.80;;
82806;SDS011;72563;44.816;20.484;2023-10-09T14:50:50;7.63;;;3.17;;
82806;SDS011;72563;44.816;20.484;2023-10-09T14:53:22;8.95;;;3.20;;
82806;SDS011;72563;44.816;20.484;2023-10-09T14:55:55;6.82;;;3.15;;
82806;SDS011;72563;44.816;20.484;2023-10-09T14:58:21;8.73;;;3.78;;
82806;SDS011;72563;44.816;20.484;2023-10-09T15:00:50;6.65;;;2.97;;
82806;SDS011;72563;44.816;20.484;2023-10-09T15:03:16;7.45;;;3.70;;
82806;SDS011;72563;44.816;20.484;2023-10-09T15:05:44;9.75;;;3.28;;
82806;SDS011;72563;44.816;20.484;2023-10-09T15:08:13;7.75;;;3.20;;
82806;SDS011;72563;44.816;20.484;2023-10-09T15:10:48;6.55;;;3.38;;
82806;SDS011;72563;44.816;20.484;2023-10-09T15:13:16;8.52;;;3.30;;
82806;SDS011;72563;44.816;20.484;2023-10-09T15:15:45;7.25;;;2.88;;
82806;SDS011;72563;44.816;20.484;2023-10-09T15:18:16;7.68;;;2.90;;
82806;SDS011;72563;44.816;20.484;2023-10-09T15:20:43;7.15;;;3.08;;
82806;SDS011;72563;44.816;20.484;2023-10-09T15:23:10;7.45;;;3.08;;
82806;SDS011;72563;44.816;20.484;2023-10-09T15:25:35;7.88;;;2.80;;
82806;SDS011;72563;44.816;20.484;2023-10-09T15:28:04;8.85;;;3.30;;
82806;SDS011;72563;44.816;20.484;2023-10-09T15:32:58;7.90;;;3.38;;
82806;SDS011;72563;44.816;20.484;2023-10-09T15:35:23;10.23;;;4.07;;
82806;SDS011;72563;44.816;20.484;2023-10-09T15:37:49;10.05;;;4.70;;
82806;SDS011;72563;44.816;20.484;2023-10-09T15:40:18;8.82;;;3.75;;
82806;SDS011;72563;44.816;20.484;2023-10-09T15:42:49;7.97;;;3.97;;
82806;SDS011;72563;44.816;20.484;2023-10-09T15:45:16;10.63;;;3.97;;
82806;SDS011;72563;44.816;20.484;2023-10-09T15:47:41;8.25;;;3.70;;
82806;SDS011;72563;44.816;20.484;2023-10-09T15:50:09;13.27;;;5.55;;
82806;SDS011;72563;44.816;20.484;2023-10-09T15:52:36;10.60;;;4.15;;
82806;SDS011;72563;44.816;20.484;2023-10-09T15:55:03;10.90;;;4.60;;
82806;SDS011;72563;44.816;20.484;2023-10-09T15:57:38;9.40;;;4.60;;
82806;SDS011;72563;44.816;20.484;2023-10-09T16:00:07;10.45;;;4.60;;
82806;SDS011;72563;44.816;20.484;2023-10-09T16:02:41;9.50;;;4.38;;
82806;SDS011;72563;44.816;20.484;2023-10-09T16:05:08;9.32;;;4.30;;